createdAt,value
2023-02-23T00:02:21.065Z,89.77
2023-02-23T00:04:49.243Z,90.24
2023-02-23T00:07:19.927Z,90.45
2023-02-23T00:09:48.494Z,90.55
2023-02-23T00:12:18.018Z,91.07
2023-02-23T00:14:46.418Z,90.98
2023-02-23T00:17:17.761Z,91.43
2023-02-23T00:19:49.325Z,91.38
2023-02-23T00:22:17.582Z,91.43
2023-02-23T00:24:47.733Z,91.59
2023-02-23T00:27:21.030Z,91.46
2023-02-23T00:29:50.992Z,91.63
2023-02-23T00:32:20.428Z,91.91
2023-02-23T00:34:49.707Z,92.17
2023-02-23T00:37:18.698Z,91.98
2023-02-23T00:39:49.639Z,92.46
2023-02-23T00:42:19.472Z,92.80
2023-02-23T00:44:49.101Z,92.94
2023-02-23T00:47:17.737Z,92.01
2023-02-23T00:49:46.035Z,92.06
2023-02-23T00:52:15.454Z,92.16
2023-02-23T00:54:43.615Z,92.07
2023-02-23T00:57:11.795Z,92.04
2023-02-23T00:59:41.333Z,92.09
2023-02-23T01:02:10.568Z,91.19
2023-02-23T01:04:38.823Z,91.14
2023-02-23T01:07:17.214Z,90.74
2023-02-23T01:09:45.413Z,91.29
2023-02-23T01:12:13.563Z,91.62
2023-02-23T01:14:47.719Z,91.88
2023-02-23T01:17:15.978Z,91.91
2023-02-23T01:19:44.906Z,91.21
2023-02-23T01:22:13.109Z,92.18
2023-02-23T01:24:43.063Z,92.26
2023-02-23T01:27:14.171Z,92.83
2023-02-23T01:29:42.352Z,92.09
2023-02-23T01:32:11.991Z,92.05
2023-02-23T01:34:40.256Z,91.85
2023-02-23T01:37:09.038Z,92.80
2023-02-23T01:39:37.349Z,92.44
2023-02-23T01:42:06.355Z,93.09
2023-02-23T01:45:24.813Z,92.68
2023-02-23T01:47:58.377Z,92.94
2023-02-23T01:50:28.752Z,92.27
2023-02-23T01:52:58.803Z,93.87
2023-02-23T01:55:29.356Z,93.42
2023-02-23T01:58:05.530Z,93.77
2023-02-23T02:00:36.597Z,93.95
2023-02-23T02:03:16.874Z,94.10
2023-02-23T02:05:46.631Z,94.06
2023-02-23T02:08:18.959Z,93.63
2023-02-23T02:10:47.772Z,93.23
2023-02-23T02:13:22.264Z,93.59
2023-02-23T02:16:42.489Z,94.07
2023-02-23T02:19:54.507Z,94.41
2023-02-23T02:22:45.858Z,94.89
2023-02-23T02:25:35.269Z,94.89
2023-02-23T02:28:54.735Z,94.69
2023-02-23T02:32:17.633Z,94.48
2023-02-23T02:35:25.002Z,94.31
2023-02-23T02:38:16.510Z,94.20
2023-02-23T02:40:54.214Z,94.56
2023-02-23T02:43:34.334Z,94.52
2023-02-23T02:46:10.043Z,94.86
2023-02-23T02:48:47.898Z,95.48
2023-02-23T02:51:24.792Z,95.03
2023-02-23T02:54:06.718Z,95.58
2023-02-23T02:56:40.425Z,95.30
2023-02-23T02:59:32.920Z,95.54
2023-02-23T03:02:21.261Z,95.82
2023-02-23T03:05:07.231Z,96.68
2023-02-23T03:07:59.500Z,97.00
2023-02-23T03:10:58.205Z,97.05
2023-02-23T03:13:58.420Z,96.57
2023-02-23T03:16:56.604Z,96.88
2023-02-23T03:19:47.829Z,97.59
2023-02-23T03:22:41.201Z,97.67
2023-02-23T03:25:32.833Z,97.40
2023-02-23T03:28:31.394Z,97.21
2023-02-23T03:31:33.909Z,96.98
2023-02-23T03:34:29.843Z,97.29
2023-02-23T03:37:25.274Z,97.47
2023-02-23T03:40:21.518Z,97.61
2023-02-23T03:43:15.227Z,97.53
2023-02-23T03:46:05.411Z,97.83
2023-02-23T03:48:53.675Z,98.01
2023-02-23T03:51:41.868Z,97.83
2023-02-23T03:54:32.386Z,98.01
2023-02-23T03:57:23.014Z,97.39
2023-02-23T04:00:15.446Z,98.25
2023-02-23T04:03:07.583Z,98.18
2023-02-23T04:05:57.193Z,97.83
2023-02-23T04:08:50.002Z,97.86
2023-02-23T04:11:50.029Z,99.42
2023-02-23T04:14:24.093Z,99.11
2023-02-23T04:16:51.981Z,98.90
2023-02-23T04:19:21.687Z,99.08
2023-02-23T04:21:50.128Z,99.02
2023-02-23T04:24:18.422Z,99.41
2023-02-23T04:26:46.729Z,98.54
2023-02-23T04:29:15.205Z,99.62
2023-02-23T04:31:48.853Z,99.64
2023-02-23T04:34:17.186Z,100.00
2023-02-23T04:36:47.010Z,100.00
2023-02-23T04:39:15.459Z,99.99
2023-02-23T04:41:44.139Z,100.00
2023-02-23T04:44:12.387Z,100.00
2023-02-23T04:46:40.655Z,100.00
2023-02-23T04:49:09.183Z,100.00
2023-02-23T04:51:37.469Z,100.00
2023-02-23T04:54:08.023Z,100.00
2023-02-23T04:56:36.486Z,100.00
2023-02-23T04:59:05.119Z,100.00
2023-02-23T05:01:33.441Z,100.00
2023-02-23T05:04:26.504Z,100.00
2023-02-23T05:07:00.665Z,100.00
2023-02-23T05:09:30.936Z,100.00
2023-02-23T05:11:59.241Z,100.00
2023-02-23T05:14:27.918Z,100.00
2023-02-23T05:16:56.515Z,100.00
2023-02-23T05:19:25.179Z,100.00
2023-02-23T05:21:53.552Z,100.00
2023-02-23T05:24:21.927Z,100.00
2023-02-23T05:26:51.671Z,100.00
2023-02-23T05:29:20.297Z,100.00
2023-02-23T05:31:51.147Z,100.00
2023-02-23T05:34:19.497Z,100.00
2023-02-23T05:36:47.731Z,100.00
2023-02-23T05:39:15.968Z,100.00
2023-02-23T05:41:44.302Z,100.00
2023-02-23T05:44:14.304Z,100.00
2023-02-23T05:46:42.581Z,100.00
2023-02-23T05:49:12.788Z,100.00
2023-02-23T05:51:41.102Z,100.00
2023-02-23T05:54:09.778Z,100.00
2023-02-23T05:56:38.227Z,100.00
2023-02-23T05:59:06.631Z,100.00
2023-02-23T06:01:36.441Z,100.00
2023-02-23T06:04:06.200Z,100.00
2023-02-23T06:06:34.885Z,100.00
2023-02-23T06:09:04.467Z,100.00
2023-02-23T06:11:33.030Z,100.00
2023-02-23T06:14:01.598Z,100.00
2023-02-23T06:16:30.093Z,100.00
2023-02-23T06:18:59.824Z,100.00
2023-02-23T06:21:28.255Z,100.00
2023-02-23T06:23:59.701Z,100.00
2023-02-23T06:26:28.110Z,100.00
2023-02-23T06:28:56.878Z,100.00
2023-02-23T06:31:25.293Z,100.00
2023-02-23T06:33:53.560Z,100.00
2023-02-23T06:36:23.214Z,100.00
2023-02-23T06:38:51.438Z,100.00
2023-02-23T06:41:19.983Z,100.00
2023-02-23T06:43:48.402Z,100.00
2023-02-23T06:46:16.711Z,100.00
2023-02-23T06:48:45.006Z,100.00
2023-02-23T06:54:07.209Z,100.00
2023-02-23T06:56:35.498Z,100.00
2023-02-23T06:59:03.777Z,100.00
2023-02-23T07:01:32.100Z,100.00
2023-02-23T07:07:02.703Z,100.00
2023-02-23T07:09:32.346Z,100.00
2023-02-23T07:12:01.248Z,100.00
2023-02-23T07:14:29.731Z,100.00
2023-02-23T07:16:58.272Z,100.00
2023-02-23T07:19:26.442Z,100.00
2023-02-23T07:21:54.650Z,100.00
2023-02-23T07:24:22.946Z,100.00
2023-02-23T07:26:52.491Z,100.00
2023-02-23T07:29:21.000Z,100.00
2023-02-23T07:31:50.028Z,100.00
2023-02-23T07:34:18.398Z,100.00
2023-02-23T07:36:46.548Z,100.00
2023-02-23T07:39:15.655Z,100.00
2023-02-23T07:41:43.843Z,100.00
2023-02-23T07:44:21.302Z,100.00
2023-02-23T07:46:50.357Z,100.00
2023-02-23T07:49:18.590Z,100.00
2023-02-23T07:51:46.972Z,100.00
2023-02-23T07:54:15.692Z,100.00
2023-02-23T07:56:44.543Z,100.00
2023-02-23T07:59:12.804Z,100.00
2023-02-23T08:01:42.388Z,100.00
2023-02-23T08:04:10.906Z,100.00
2023-02-23T08:06:39.134Z,100.00
2023-02-23T08:09:07.390Z,100.00
2023-02-23T08:11:36.076Z,100.00
2023-02-23T08:14:04.446Z,100.00
2023-02-23T08:16:34.594Z,100.00
2023-02-23T08:19:04.225Z,100.00
2023-02-23T08:21:32.685Z,100.00
2023-02-23T08:24:00.881Z,100.00
2023-02-23T08:26:29.708Z,100.00
2023-02-23T08:28:57.923Z,100.00
2023-02-23T08:31:27.619Z,100.00
2023-02-23T08:33:55.914Z,100.00
2023-02-23T08:36:25.809Z,100.00
2023-02-23T08:38:54.502Z,100.00
2023-02-23T08:41:23.059Z,100.00
2023-02-23T08:43:51.263Z,100.00
2023-02-23T08:46:20.580Z,100.00
2023-02-23T08:48:48.873Z,100.00
2023-02-23T08:51:17.329Z,100.00
2023-02-23T08:53:46.931Z,100.00
2023-02-23T08:56:15.741Z,100.00
2023-02-23T08:58:44.641Z,100.00
2023-02-23T09:01:20.086Z,100.00
2023-02-23T09:03:49.943Z,100.00
2023-02-23T09:06:28.595Z,100.00
2023-02-23T09:08:58.392Z,100.00
2023-02-23T09:11:26.956Z,100.00
2023-02-23T09:13:55.468Z,100.00
2023-02-23T09:16:23.689Z,100.00
2023-02-23T09:18:51.966Z,100.00
2023-02-23T09:21:25.302Z,100.00
2023-02-23T09:23:56.111Z,100.00
2023-02-23T09:26:28.540Z,100.00
2023-02-23T09:28:57.306Z,100.00
2023-02-23T09:31:25.853Z,100.00
2023-02-23T09:33:55.554Z,100.00
2023-02-23T09:36:26.572Z,100.00
2023-02-23T09:38:59.513Z,100.00
2023-02-23T09:42:08.054Z,100.00
2023-02-23T09:44:57.634Z,100.00
2023-02-23T09:47:45.901Z,100.00
2023-02-23T09:50:19.705Z,100.00
2023-02-23T09:52:53.770Z,100.00
2023-02-23T09:55:22.247Z,100.00
2023-02-23T09:57:52.016Z,100.00
2023-02-23T10:00:25.354Z,100.00
2023-02-23T10:03:18.301Z,100.00
2023-02-23T10:05:55.807Z,100.00
2023-02-23T10:08:40.938Z,100.00
2023-02-23T10:11:24.824Z,100.00
2023-02-23T10:14:06.341Z,100.00
2023-02-23T10:16:47.336Z,100.00
2023-02-23T10:19:24.099Z,100.00
2023-02-23T10:22:00.851Z,100.00
2023-02-23T10:24:35.726Z,100.00
2023-02-23T10:27:11.560Z,100.00
2023-02-23T10:29:48.248Z,100.00
2023-02-23T10:32:22.900Z,100.00
2023-02-23T10:34:56.584Z,100.00
2023-02-23T10:37:29.588Z,100.00
2023-02-23T10:39:58.440Z,100.00
2023-02-23T10:42:29.927Z,100.00
2023-02-23T10:45:00.563Z,100.00
2023-02-23T10:47:32.866Z,100.00
2023-02-23T10:50:02.131Z,100.00
2023-02-23T10:52:41.326Z,100.00
2023-02-23T10:55:25.320Z,100.00
2023-02-23T10:58:06.087Z,100.00
2023-02-23T11:00:37.139Z,100.00
2023-02-23T11:03:26.385Z,100.00
2023-02-23T11:05:55.100Z,100.00
2023-02-23T11:08:31.532Z,100.00
2023-02-23T11:11:28.925Z,100.00
2023-02-23T11:13:58.346Z,100.00
2023-02-23T11:16:31.856Z,100.00
2023-02-23T11:19:02.561Z,100.00
2023-02-23T11:21:34.460Z,100.00
2023-02-23T11:24:18.174Z,100.00
2023-02-23T11:26:48.972Z,99.63
2023-02-23T11:29:26.629Z,99.48
2023-02-23T11:31:59.218Z,100.00
2023-02-23T11:34:32.438Z,98.64
2023-02-23T11:37:06.024Z,98.88
2023-02-23T11:39:35.311Z,98.49
2023-02-23T11:42:17.917Z,98.64
2023-02-23T11:44:52.592Z,98.44
2023-02-23T11:47:24.351Z,98.76
2023-02-23T11:49:53.008Z,98.63
2023-02-23T11:52:24.305Z,99.03
2023-02-23T11:54:57.492Z,99.89
2023-02-23T11:57:29.838Z,97.90
2023-02-23T11:59:59.365Z,97.55
2023-02-23T12:02:32.033Z,98.52
2023-02-23T12:05:08.740Z,99.47
2023-02-23T12:07:41.585Z,96.87
2023-02-23T12:10:20.666Z,96.43
2023-02-23T12:12:59.398Z,95.64
2023-02-23T12:15:38.957Z,96.63
2023-02-23T12:18:25.441Z,96.39
2023-02-23T12:20:57.390Z,94.90
2023-02-23T12:23:31.706Z,94.50
2023-02-23T12:26:07.184Z,93.54
2023-02-23T12:28:40.137Z,90.40
2023-02-23T12:31:23.906Z,89.89
2023-02-23T12:33:59.944Z,91.32
2023-02-23T12:36:38.556Z,89.42
2023-02-23T12:39:17.819Z,90.02
2023-02-23T12:41:54.002Z,89.10
2023-02-23T12:44:40.124Z,88.96
2023-02-23T12:47:22.145Z,87.67
2023-02-23T12:50:00.369Z,86.98
2023-02-23T12:52:33.514Z,86.54
2023-02-23T12:55:01.796Z,86.03
2023-02-23T12:57:38.625Z,86.29
2023-02-23T13:00:39.364Z,85.89
2023-02-23T13:03:42.387Z,84.94
2023-02-23T13:06:18.384Z,84.56
2023-02-23T13:09:01.795Z,83.13
2023-02-23T13:11:50.904Z,82.05
2023-02-23T13:14:29.734Z,80.88
2023-02-23T13:17:06.431Z,80.90
2023-02-23T13:19:43.607Z,82.60
2023-02-23T13:22:32.238Z,84.43
2023-02-23T13:25:05.273Z,86.21
2023-02-23T13:27:38.826Z,87.64
2023-02-23T13:30:11.869Z,87.60
2023-02-23T13:32:40.766Z,88.60
2023-02-23T13:35:15.716Z,86.27
2023-02-23T13:37:51.985Z,86.93
2023-02-23T13:40:30.789Z,87.07
2023-02-23T13:43:13.682Z,87.31
2023-02-23T13:45:56.909Z,88.08
2023-02-23T13:48:39.789Z,88.28
2023-02-23T13:51:21.922Z,86.76
2023-02-23T13:54:05.882Z,85.90
2023-02-23T13:56:43.215Z,82.50
2023-02-23T13:59:18.326Z,81.66
2023-02-23T14:01:49.955Z,80.64
2023-02-23T14:04:24.900Z,79.34
2023-02-23T14:06:56.852Z,78.70
2023-02-23T14:09:31.934Z,75.52
2023-02-23T14:12:19.238Z,75.90
2023-02-23T14:14:48.377Z,76.31
2023-02-23T14:17:50.436Z,76.73
2023-02-23T14:20:55.530Z,76.96
2023-02-23T14:23:35.919Z,77.01
2023-02-23T14:26:34.352Z,77.37
2023-02-23T14:29:31.828Z,77.32
2023-02-23T14:32:29.868Z,77.56
2023-02-23T14:35:00.489Z,77.97
2023-02-23T14:37:35.707Z,78.04
2023-02-23T14:40:15.039Z,78.08
2023-02-23T14:42:48.584Z,77.84
2023-02-23T14:45:27.386Z,78.65
2023-02-23T14:48:00.723Z,78.91
2023-02-23T14:50:33.216Z,80.69
2023-02-23T14:53:04.128Z,80.34
2023-02-23T14:55:35.440Z,81.34
2023-02-23T14:58:22.670Z,81.93
2023-02-23T15:00:52.093Z,81.67
2023-02-23T15:03:22.387Z,82.00
2023-02-23T15:05:55.703Z,82.39
2023-02-23T15:08:26.013Z,82.26
2023-02-23T15:11:03.155Z,82.77
2023-02-23T15:13:39.849Z,82.91
2023-02-23T15:16:12.673Z,82.78
2023-02-23T15:19:30.439Z,82.65
2023-02-23T15:22:01.462Z,83.02
2023-02-23T15:24:41.167Z,82.95
2023-02-23T15:27:19.151Z,83.73
2023-02-23T15:29:48.756Z,84.15
2023-02-23T15:32:22.248Z,84.30
2023-02-23T15:34:51.856Z,84.78
2023-02-23T15:37:34.796Z,83.39
2023-02-23T15:40:07.392Z,85.15
2023-02-23T15:42:40.586Z,82.84
2023-02-23T15:45:20.990Z,83.10
2023-02-23T15:47:49.986Z,82.89
2023-02-23T15:50:31.206Z,82.85
2023-02-23T15:53:13.377Z,82.96
2023-02-23T15:55:45.326Z,82.72
2023-02-23T15:58:20.200Z,82.52
2023-02-23T16:00:58.412Z,82.78
2023-02-23T16:03:31.749Z,82.80
2023-02-23T16:06:07.606Z,82.75
2023-02-23T16:08:37.122Z,82.86
2023-02-23T16:11:13.482Z,82.43
2023-02-23T16:13:45.179Z,81.47
2023-02-23T16:16:19.456Z,81.21
2023-02-23T16:18:54.078Z,82.53
2023-02-23T16:21:25.406Z,81.86
2023-02-23T16:23:55.652Z,82.93
2023-02-23T16:26:28.945Z,83.18
2023-02-23T16:29:00.706Z,83.86
2023-02-23T16:31:46.082Z,83.06
2023-02-23T16:34:25.889Z,83.87
2023-02-23T16:37:00.100Z,83.89
2023-02-23T16:39:30.660Z,82.89
2023-02-23T16:42:00.148Z,82.91
2023-02-23T16:44:42.905Z,83.92
2023-02-23T16:47:36.437Z,83.44
2023-02-23T16:50:20.273Z,84.21
2023-02-23T16:52:53.600Z,83.79
2023-02-23T16:55:25.783Z,84.19
2023-02-23T16:57:56.916Z,84.84
2023-02-23T17:00:28.854Z,84.09
2023-02-23T17:03:00.999Z,83.94
2023-02-23T17:05:30.561Z,84.97
2023-02-23T17:07:59.640Z,85.36
2023-02-23T17:10:31.607Z,85.23
2023-02-23T17:13:04.357Z,84.93
2023-02-23T17:15:36.422Z,85.20
2023-02-23T17:18:06.940Z,85.21
2023-02-23T17:20:35.220Z,85.68
2023-02-23T17:23:04.964Z,85.93
2023-02-23T17:25:33.849Z,85.98
2023-02-23T17:28:02.976Z,85.71
2023-02-23T17:30:33.065Z,86.93
2023-02-23T17:33:02.667Z,86.18
2023-02-23T17:35:33.487Z,87.49
2023-02-23T17:38:02.359Z,87.25
2023-02-23T17:40:32.704Z,87.95
2023-02-23T17:43:03.618Z,88.00
2023-02-23T17:45:32.500Z,87.81
2023-02-23T17:48:00.914Z,87.39
2023-02-23T17:50:30.954Z,88.45
2023-02-23T17:52:59.722Z,88.33
2023-02-23T17:55:27.915Z,88.22
2023-02-23T17:57:56.169Z,88.65
2023-02-23T18:00:25.072Z,89.44
2023-02-23T18:02:53.718Z,90.08
2023-02-23T18:05:22.412Z,90.48
2023-02-23T18:07:52.097Z,90.58
2023-02-23T18:10:25.436Z,90.13
2023-02-23T18:12:54.344Z,90.17
2023-02-23T18:15:23.005Z,90.10
2023-02-23T18:17:54.482Z,90.13
2023-02-23T18:20:22.963Z,90.73
2023-02-23T18:22:52.530Z,91.13
2023-02-23T18:25:24.791Z,92.26
2023-02-23T18:27:54.007Z,91.86
2023-02-23T18:30:24.607Z,91.47
2023-02-23T18:32:56.023Z,90.92
2023-02-23T18:35:25.056Z,91.37
2023-02-23T18:37:54.745Z,91.58
2023-02-23T18:40:23.880Z,91.58
2023-02-23T18:42:52.446Z,91.50
2023-02-23T18:45:20.858Z,90.59
2023-02-23T18:47:49.643Z,90.04
2023-02-23T18:50:19.640Z,91.43
2023-02-23T18:52:50.817Z,92.07
2023-02-23T18:55:22.399Z,92.35
2023-02-23T18:57:51.613Z,92.04
2023-02-23T19:00:21.349Z,91.78
2023-02-23T19:02:50.112Z,92.10
2023-02-23T19:05:21.709Z,92.26
2023-02-23T19:07:50.360Z,92.31
2023-02-23T19:10:20.026Z,92.29
2023-02-23T19:12:48.232Z,91.81
2023-02-23T19:15:16.471Z,93.32
2023-02-23T19:17:46.448Z,92.93
2023-02-23T19:20:15.861Z,93.47
2023-02-23T19:22:45.514Z,93.06
2023-02-23T19:25:14.872Z,93.67
2023-02-23T19:27:44.784Z,93.21
2023-02-23T19:30:14.881Z,93.59
2023-02-23T19:32:44.399Z,93.56
2023-02-23T19:35:15.698Z,93.85
2023-02-23T19:37:49.081Z,93.66
2023-02-23T19:40:23.848Z,93.36
2023-02-23T19:42:53.482Z,93.62
2023-02-23T19:45:22.433Z,93.51
2023-02-23T19:47:53.303Z,93.75
2023-02-23T19:50:22.508Z,93.79
2023-02-23T19:52:51.192Z,94.57
2023-02-23T19:55:20.381Z,94.79
2023-02-23T19:57:48.712Z,94.67
2023-02-23T20:00:20.081Z,94.88
2023-02-23T20:02:54.574Z,95.35
2023-02-23T20:05:25.804Z,95.46
2023-02-23T20:07:54.582Z,95.40
2023-02-23T20:10:25.935Z,95.52
2023-02-23T20:12:54.469Z,96.55
2023-02-23T20:15:24.075Z,94.82
2023-02-23T20:17:52.379Z,95.96
2023-02-23T20:20:21.621Z,95.88
2023-02-23T20:22:53.872Z,97.16
2023-02-23T20:25:22.827Z,96.20
2023-02-23T20:27:51.770Z,95.34
2023-02-23T20:30:20.522Z,95.55
2023-02-23T20:32:50.526Z,94.95
2023-02-23T20:35:20.496Z,95.06
2023-02-23T20:37:48.723Z,95.42
2023-02-23T20:40:18.693Z,95.82
2023-02-23T20:42:49.184Z,95.72
2023-02-23T20:45:20.231Z,94.90
2023-02-23T20:47:53.070Z,94.57
2023-02-23T20:50:22.473Z,95.44
2023-02-23T20:52:51.135Z,95.77
2023-02-23T20:55:26.315Z,96.07
2023-02-23T20:57:55.578Z,96.68
2023-02-23T21:00:32.050Z,96.61
2023-02-23T21:03:03.321Z,96.58
2023-02-23T21:05:41.794Z,96.65
2023-02-23T21:08:10.985Z,97.22
2023-02-23T21:10:40.591Z,96.96
2023-02-23T21:13:10.383Z,97.60
2023-02-23T21:15:40.377Z,96.97
2023-02-23T21:18:10.685Z,97.27
2023-02-23T21:20:39.674Z,96.85
2023-02-23T21:23:08.609Z,96.94
2023-02-23T21:25:37.902Z,96.92
2023-02-23T21:28:06.112Z,97.61
2023-02-23T21:30:34.413Z,96.15
2023-02-23T21:33:03.803Z,97.17
2023-02-23T21:35:35.144Z,97.16
2023-02-23T21:38:04.145Z,97.32
2023-02-23T21:40:32.336Z,96.86
2023-02-23T21:43:01.262Z,96.68
2023-02-23T21:45:29.505Z,96.68
2023-02-23T21:47:57.731Z,96.81
2023-02-23T21:50:25.992Z,96.38
2023-02-23T21:52:58.217Z,96.86
2023-02-23T21:55:26.462Z,96.52
2023-02-23T21:57:54.886Z,96.28
2023-02-23T22:00:24.084Z,95.92
2023-02-23T22:02:52.795Z,96.64
2023-02-23T22:05:21.672Z,96.78
2023-02-23T22:07:52.097Z,97.57
2023-02-23T22:10:25.390Z,96.45
2023-02-23T22:12:56.097Z,97.00
2023-02-23T22:15:27.614Z,97.51
2023-02-23T22:17:57.188Z,97.31
2023-02-23T22:20:26.161Z,97.07
2023-02-23T22:22:54.429Z,98.00
2023-02-23T22:25:26.059Z,98.38
2023-02-23T22:27:54.388Z,98.87
2023-02-23T22:30:22.999Z,99.01
2023-02-23T22:32:51.696Z,99.84
2023-02-23T22:35:20.081Z,99.40
2023-02-23T22:37:48.583Z,99.57
2023-02-23T22:40:17.197Z,99.85
2023-02-23T22:42:49.093Z,99.37
2023-02-23T22:45:17.847Z,98.96
2023-02-23T22:47:46.207Z,99.30
2023-02-23T22:50:19.168Z,100.00
2023-02-23T22:52:48.038Z,99.63
2023-02-23T22:55:16.525Z,98.95
2023-02-23T22:57:46.020Z,99.84
2023-02-23T23:00:19.813Z,98.89
2023-02-23T23:02:48.289Z,99.36
2023-02-23T23:05:16.869Z,99.45
2023-02-23T23:07:47.793Z,99.77
2023-02-23T23:10:18.719Z,98.94
2023-02-23T23:12:48.793Z,99.53
2023-02-23T23:15:19.965Z,98.69
2023-02-23T23:17:49.305Z,98.84
2023-02-23T23:20:23.157Z,99.58
2023-02-23T23:22:51.374Z,99.27
2023-02-23T23:25:23.067Z,99.19
2023-02-23T23:27:53.864Z,99.26
2023-02-23T23:30:26.006Z,99.66
2023-02-23T23:32:54.787Z,99.09
2023-02-23T23:35:23.376Z,100.00
2023-02-23T23:37:52.451Z,100.00
2023-02-23T23:40:24.707Z,100.00
2023-02-23T23:42:55.296Z,100.00
2023-02-23T23:45:25.809Z,100.00
2023-02-23T23:47:54.510Z,100.00
2023-02-23T23:50:26.610Z,100.00
2023-02-23T23:52:55.424Z,100.00
2023-02-23T23:55:23.700Z,100.00
2023-02-23T23:57:52.138Z,100.00
